Time;durP1;ratioP1;P1;durP2;ratioP2;P2;SDS_P1;SDS_P2;PMS_P1;PMS_P2;Temp;Humidity;BMP_temperature;BMP_pressure;BME280_temperature;BME280_humidity;BME280_pressure;Samples;Min_cycle;Max_cycle;Signal;HPM_P1;HPM_P2
2024/01/26 00:01:13;;;;;;;13.40;4.93;;;6.70;99.90;;;;;;5010811;28;20753;-62
2024/01/26 00:03:40;;;;;;;8.02;4.13;;;6.70;99.90;;;;;;5006521;28;20375;-61
2024/01/26 00:06:07;;;;;;;12.45;6.00;;;6.70;99.90;;;;;;5000670;28;20296;-61
2024/01/26 00:08:35;;;;;;;6.65;4.28;;;6.70;99.90;;;;;;4998337;28;20208;-62
2024/01/26 00:11:02;;;;;;;8.48;5.57;;;6.70;99.90;;;;;;5010522;28;20290;-62
2024/01/26 00:13:29;;;;;;;4.70;3.78;;;6.70;99.90;;;;;;5005939;28;20635;-61
2024/01/26 00:15:55;;;;;;;8.50;5.22;;;6.70;99.90;;;;;;5003479;28;20579;-62
2024/01/26 00:18:22;;;;;;;9.80;5.20;;;6.70;99.90;;;;;;5003092;28;20215;-62
2024/01/26 00:20:49;;;;;;;8.63;4.30;;;6.70;99.90;;;;;;5008686;28;20200;-62
2024/01/26 00:23:16;;;;;;;8.40;4.80;;;6.70;99.90;;;;;;5009700;28;20227;-62
2024/01/26 00:25:44;;;;;;;8.52;4.50;;;6.70;99.90;;;;;;5007760;28;20283;-60
2024/01/26 00:28:11;;;;;;;6.65;4.40;;;6.80;99.90;;;;;;5007131;28;20209;-62
2024/01/26 00:30:38;;;;;;;8.15;4.60;;;6.80;99.90;;;;;;5001753;28;20287;-61
2024/01/26 00:33:05;;;;;;;9.80;5.20;;;6.80;99.90;;;;;;4994142;28;20253;-62
2024/01/26 00:35:32;;;;;;;9.02;4.28;;;6.80;99.90;;;;;;5005725;28;20210;-61
2024/01/26 00:37:59;;;;;;;6.78;3.75;;;6.80;99.90;;;;;;5003108;28;20204;-62
2024/01/26 00:40:25;;;;;;;7.78;4.80;;;6.80;99.90;;;;;;5009989;28;20208;-62
2024/01/26 00:42:54;;;;;;;7.30;4.00;;;6.80;99.90;;;;;;4995493;28;20303;-61
2024/01/26 00:45:20;;;;;;;7.43;5.18;;;6.80;99.90;;;;;;4994842;28;20208;-62
2024/01/26 00:47:47;;;;;;;5.75;4.43;;;6.80;99.90;;;;;;4999739;28;20211;-61
2024/01/26 00:50:14;;;;;;;6.05;4.65;;;6.80;99.90;;;;;;4992040;28;20279;-61
2024/01/26 00:52:41;;;;;;;7.97;4.88;;;6.80;99.90;;;;;;4998795;28;21770;-61
2024/01/26 00:55:08;;;;;;;6.45;5.20;;;6.80;99.90;;;;;;4993695;28;20209;-62
2024/01/26 00:57:35;;;;;;;6.57;5.55;;;6.80;99.90;;;;;;5009531;28;20295;-61
2024/01/26 01:00:07;;;;;;;10.77;5.45;;;6.90;99.90;;;;;;5004096;28;20295;-62
2024/01/26 01:02:34;;;;;;;11.30;5.28;;;6.90;99.90;;;;;;4996254;28;20221;-62
2024/01/26 01:05:01;;;;;;;9.10;5.55;;;6.90;99.90;;;;;;4993484;28;20330;-62
2024/01/26 01:07:28;;;;;;;7.55;4.63;;;6.90;99.90;;;;;;4998537;28;20214;-62
2024/01/26 01:09:55;;;;;;;4.93;4.45;;;6.90;99.90;;;;;;5008662;28;20212;-61
2024/01/26 01:12:21;;;;;;;9.02;4.75;;;6.90;99.90;;;;;;5003666;28;20236;-60
2024/01/26 01:14:48;;;;;;;8.93;3.72;;;6.90;99.90;;;;;;5007392;28;20204;-62
2024/01/26 01:17:16;;;;;;;6.97;4.07;;;6.90;99.90;;;;;;5010155;28;20298;-61
2024/01/26 01:19:43;;;;;;;10.77;4.25;;;6.90;99.90;;;;;;5005276;28;20218;-60
2024/01/26 01:22:10;;;;;;;8.95;5.22;;;6.90;99.90;;;;;;5007570;28;20314;-61
2024/01/26 01:24:37;;;;;;;5.72;4.50;;;6.90;99.90;;;;;;4993373;28;20213;-62
2024/01/26 01:27:04;;;;;;;10.13;6.40;;;6.90;99.90;;;;;;4997147;28;20299;-61
2024/01/26 01:29:31;;;;;;;7.50;4.00;;;6.90;99.90;;;;;;4995319;28;20295;-62
2024/01/26 01:31:58;;;;;;;7.75;5.25;;;6.90;99.90;;;;;;4999816;28;20652;-61
2024/01/26 01:34:26;;;;;;;6.63;4.32;;;7.00;99.90;;;;;;5005923;28;20231;-63
2024/01/26 01:36:53;;;;;;;19.27;6.45;;;7.00;99.90;;;;;;5009005;28;20299;-61
2024/01/26 01:39:20;;;;;;;5.38;3.50;;;7.00;99.90;;;;;;5003630;28;20200;-61
2024/01/26 01:41:48;;;;;;;10.88;5.43;;;7.00;99.90;;;;;;5005223;28;20310;-62
2024/01/26 01:44:15;;;;;;;12.27;4.75;;;7.00;99.90;;;;;;5008788;28;20717;-62
2024/01/26 01:46:42;;;;;;;6.43;4.43;;;7.00;99.90;;;;;;5001137;28;20212;-59
2024/01/26 01:49:09;;;;;;;5.72;4.30;;;7.00;99.90;;;;;;4992981;28;20299;-61
2024/01/26 01:51:38;;;;;;;7.93;4.78;;;7.00;99.90;;;;;;4992976;28;20665;-62
2024/01/26 01:54:07;;;;;;;12.07;4.78;;;7.00;99.90;;;;;;4993141;28;20291;-61
2024/01/26 01:56:36;;;;;;;6.75;4.38;;;7.00;99.90;;;;;;4992755;28;20631;-61
2024/01/26 01:59:04;;;;;;;8.50;4.47;;;7.00;99.90;;;;;;4992787;28;20212;-62
2024/01/26 02:01:31;;;;;;;6.97;5.38;;;7.00;99.90;;;;;;4993037;28;20231;-61
2024/01/26 02:04:01;;;;;;;10.98;4.97;;;7.00;99.90;;;;;;4993254;28;20666;-62
2024/01/26 02:06:28;;;;;;;9.45;4.80;;;7.00;99.90;;;;;;4993113;28;20247;-61
2024/01/26 02:08:56;;;;;;;8.32;4.00;;;7.00;99.90;;;;;;4992900;28;20754;-61
2024/01/26 02:11:24;;;;;;;10.63;4.18;;;7.00;99.90;;;;;;4992650;28;20212;-61
2024/01/26 02:13:50;;;;;;;4.43;3.92;;;7.10;99.90;;;;;;4993073;28;20890;-61
2024/01/26 02:16:17;;;;;;;6.70;4.03;;;7.10;99.90;;;;;;4992760;28;20321;-61
2024/01/26 02:18:44;;;;;;;7.47;3.60;;;7.10;99.90;;;;;;4992708;28;20212;-62
2024/01/26 02:21:11;;;;;;;4.80;3.78;;;7.10;99.90;;;;;;4992549;28;20236;-61
2024/01/26 02:23:41;;;;;;;6.53;5.10;;;7.10;99.90;;;;;;4992632;28;20311;-62
2024/01/26 02:26:08;;;;;;;3.83;3.53;;;7.10;99.90;;;;;;4992588;28;20219;-62
2024/01/26 02:28:35;;;;;;;4.25;3.65;;;7.10;99.90;;;;;;4992340;28;20298;-62
2024/01/26 02:31:02;;;;;;;5.85;4.30;;;7.10;99.90;;;;;;4992349;28;20259;-61
2024/01/26 02:33:29;;;;;;;7.55;4.22;;;7.20;99.90;;;;;;4992466;28;20235;-62
2024/01/26 02:35:56;;;;;;;6.22;3.75;;;7.20;99.90;;;;;;4992611;28;20295;-62
2024/01/26 02:38:23;;;;;;;3.67;3.30;;;7.20;99.90;;;;;;4992397;28;20295;-61
2024/01/26 02:40:51;;;;;;;8.82;4.25;;;7.20;99.90;;;;;;4992198;28;20210;-62
2024/01/26 02:43:18;;;;;;;4.55;4.15;;;7.20;99.90;;;;;;4992488;28;20267;-62
2024/01/26 02:45:46;;;;;;;5.80;3.22;;;7.20;99.90;;;;;;4992397;28;20216;-61
2024/01/26 02:48:13;;;;;;;5.50;3.83;;;7.20;99.90;;;;;;4992504;28;20204;-62
2024/01/26 02:50:40;;;;;;;5.30;4.47;;;7.20;99.90;;;;;;4992121;28;20295;-61
2024/01/26 02:53:07;;;;;;;5.38;2.80;;;7.20;99.90;;;;;;4991855;28;20260;-61
2024/01/26 02:55:34;;;;;;;4.95;3.03;;;7.20;99.90;;;;;;4992286;28;20299;-62
2024/01/26 02:58:02;;;;;;;3.55;3.10;;;7.10;99.90;;;;;;4992209;28;20219;-61
2024/01/26 03:00:29;;;;;;;4.63;2.85;;;7.10;99.90;;;;;;4992198;28;20233;-62
2024/01/26 03:02:56;;;;;;;3.70;2.70;;;7.20;99.90;;;;;;4992000;28;20228;-62
2024/01/26 03:05:23;;;;;;;4.72;3.10;;;7.20;99.90;;;;;;4992256;28;20236;-60
2024/01/26 03:07:50;;;;;;;4.47;4.07;;;7.20;99.90;;;;;;4992015;28;20296;-62
2024/01/26 03:10:17;;;;;;;2.67;2.40;;;7.20;99.90;;;;;;4994915;28;20292;-62
2024/01/26 03:12:43;;;;;;;7.70;3.40;;;7.20;99.90;;;;;;4996128;28;20476;-62
2024/01/26 03:15:12;;;;;;;3.53;3.17;;;7.20;99.90;;;;;;4996212;28;20323;-61
2024/01/26 03:17:38;;;;;;;3.22;2.92;;;7.20;99.90;;;;;;4996259;28;20208;-62
2024/01/26 03:20:08;;;;;;;3.97;2.80;;;7.20;99.90;;;;;;4995895;28;20215;-60
2024/01/26 03:22:34;;;;;;;3.22;2.90;;;7.20;99.90;;;;;;4995677;28;20282;-62
2024/01/26 03:25:03;;;;;;;7.75;3.05;;;7.20;99.90;;;;;;4995974;28;20291;-62
2024/01/26 03:27:30;;;;;;;4.82;4.45;;;7.20;99.90;;;;;;4996073;28;20204;-62
2024/01/26 03:29:57;;;;;;;6.45;3.95;;;7.20;99.90;;;;;;4994904;28;20208;-60
2024/01/26 03:32:25;;;;;;;5.28;4.88;;;7.20;99.90;;;;;;4995189;28;20232;-62
2024/01/26 03:34:52;;;;;;;9.98;5.82;;;7.20;99.90;;;;;;4995521;28;20224;-62
2024/01/26 03:37:19;;;;;;;3.95;3.22;;;7.20;99.90;;;;;;4996083;28;20208;-61
2024/01/26 03:39:46;;;;;;;5.88;5.38;;;7.20;99.90;;;;;;4995885;28;20216;-62
2024/01/26 03:42:13;;;;;;;6.22;5.65;;;7.20;99.90;;;;;;4995580;28;20224;-62
2024/01/26 03:44:41;;;;;;;4.45;3.75;;;7.20;99.90;;;;;;4995753;28;20629;-62
2024/01/26 03:47:08;;;;;;;5.90;3.63;;;7.20;99.90;;;;;;4995586;28;20208;-61
2024/01/26 03:49:36;;;;;;;4.75;4.22;;;7.20;99.90;;;;;;4995430;28;20295;-62
2024/01/26 03:52:04;;;;;;;4.03;3.58;;;7.20;99.90;;;;;;4995348;28;20236;-62
2024/01/26 03:54:31;;;;;;;8.68;4.35;;;7.20;99.90;;;;;;4995591;28;20247;-61
2024/01/26 03:56:58;;;;;;;4.72;4.20;;;7.20;99.90;;;;;;4995494;28;20652;-61
2024/01/26 03:59:25;;;;;;;3.40;2.78;;;7.20;99.90;;;;;;4994883;28;20208;-62
2024/01/26 04:01:51;;;;;;;2.65;2.45;;;7.20;99.90;;;;;;4993148;28;20262;-62
2024/01/26 04:04:19;;;;;;;5.50;2.55;;;7.20;99.90;;;;;;4995078;28;20742;-61
2024/01/26 04:06:48;;;;;;;3.38;3.03;;;7.20;99.90;;;;;;4995245;28;20328;-61
2024/01/26 04:09:14;;;;;;;3.03;2.72;;;7.20;99.90;;;;;;4994937;28;20216;-62
2024/01/26 04:11:41;;;;;;;3.78;2.28;;;7.20;99.90;;;;;;4995116;28;20232;-62
2024/01/26 04:14:08;;;;;;;2.08;1.95;;;7.20;99.90;;;;;;4995229;28;20229;-62
2024/01/26 04:16:35;;;;;;;3.85;3.25;;;7.20;99.90;;;;;;4995179;28;20242;-62
2024/01/26 04:19:02;;;;;;;6.05;3.35;;;7.20;99.90;;;;;;4995113;28;20731;-62
2024/01/26 04:21:29;;;;;;;3.78;3.17;;;7.20;99.90;;;;;;4994768;28;20303;-62
2024/01/26 04:23:56;;;;;;;2.35;2.17;;;7.20;99.90;;;;;;4994852;28;20216;-62
2024/01/26 04:26:23;;;;;;;3.17;2.88;;;7.20;99.90;;;;;;4995025;28;20216;-62
2024/01/26 04:28:50;;;;;;;3.72;3.13;;;7.20;99.90;;;;;;4994999;28;20644;-61
2024/01/26 04:31:17;;;;;;;3.85;3.55;;;7.20;99.90;;;;;;4994647;28;20303;-62
2024/01/26 04:33:44;;;;;;;5.87;3.43;;;7.20;99.90;;;;;;4994638;28;20686;-62
2024/01/26 04:36:11;;;;;;;4.03;3.28;;;7.20;99.90;;;;;;4994701;28;20548;-61
2024/01/26 04:38:38;;;;;;;5.45;4.50;;;7.20;99.90;;;;;;4994705;28;20307;-62
2024/01/26 04:41:06;;;;;;;3.28;2.83;;;7.20;99.90;;;;;;4994662;28;20642;-62
2024/01/26 04:43:33;;;;;;;2.92;2.67;;;7.20;99.90;;;;;;4994724;28;20347;-62
2024/01/26 04:46:00;;;;;;;3.60;3.35;;;7.20;99.90;;;;;;4994497;28;20299;-62
2024/01/26 04:48:27;;;;;;;5.78;3.85;;;7.30;99.90;;;;;;4994520;28;20220;-62
2024/01/26 04:50:53;;;;;;;7.35;3.83;;;7.20;99.90;;;;;;4994235;28;20303;-62
2024/01/26 04:53:20;;;;;;;5.03;4.57;;;7.30;99.90;;;;;;5026421;23;20321;-61
2024/01/26 04:55:47;;;;;;;4.57;4.22;;;7.30;99.90;;;;;;5013779;28;20251;-60
2024/01/26 04:58:15;;;;;;;5.00;4.13;;;7.30;99.90;;;;;;5013929;28;20222;-58
2024/01/26 05:00:42;;;;;;;7.05;3.67;;;7.30;99.90;;;;;;5012668;28;20210;-61
2024/01/26 05:03:09;;;;;;;4.10;3.05;;;7.30;99.90;;;;;;5013613;28;20302;-61
2024/01/26 05:05:36;;;;;;;5.88;3.80;;;7.30;99.90;;;;;;5013595;28;20204;-61
2024/01/26 05:08:03;;;;;;;8.93;3.75;;;7.30;99.90;;;;;;5013905;28;20218;-61
2024/01/26 05:10:29;;;;;;;4.80;3.80;;;7.30;99.90;;;;;;5013609;28;20311;-60
2024/01/26 05:12:56;;;;;;;4.00;3.63;;;7.30;99.90;;;;;;5013460;28;20326;-61
2024/01/26 05:15:25;;;;;;;7.18;3.58;;;7.30;99.90;;;;;;5013498;28;20227;-60
2024/01/26 05:17:51;;;;;;;5.55;3.05;;;7.30;99.90;;;;;;5013504;28;20791;-58
2024/01/26 05:20:18;;;;;;;3.30;3.05;;;7.30;99.90;;;;;;5013198;28;20211;-61
2024/01/26 05:22:45;;;;;;;4.80;3.50;;;7.30;99.90;;;;;;5013474;28;20318;-60
2024/01/26 05:25:12;;;;;;;4.90;4.40;;;7.30;99.90;;;;;;5013481;28;20208;-62
2024/01/26 05:27:41;;;;;;;7.53;4.30;;;7.40;99.90;;;;;;5013345;28;20762;-60
2024/01/26 05:30:09;;;;;;;6.72;5.10;;;7.40;99.90;;;;;;5013152;28;20211;-60
2024/01/26 05:32:37;;;;;;;5.60;5.03;;;7.50;99.90;;;;;;5012555;28;20238;-61
2024/01/26 05:35:05;;;;;;;7.90;7.18;;;7.50;99.90;;;;;;5013098;28;20725;-61
2024/01/26 05:37:32;;;;;;;10.88;7.03;;;7.60;99.90;;;;;;5013143;28;20203;-61
2024/01/26 05:39:59;;;;;;;7.95;5.95;;;7.60;99.90;;;;;;5012952;28;20208;-60
2024/01/26 05:42:25;;;;;;;6.70;6.00;;;7.70;99.90;;;;;;5012899;28;20318;-61
2024/01/26 05:44:52;;;;;;;9.73;6.50;;;7.80;99.90;;;;;;5013032;28;20200;-61
2024/01/26 05:47:19;;;;;;;8.18;6.63;;;7.90;99.90;;;;;;5012844;28;20501;-61
2024/01/26 05:49:50;;;;;;;7.70;6.53;;;8.10;99.90;;;;;;5013073;28;20274;-60
2024/01/26 05:52:17;;;;;;;5.60;5.10;;;8.20;99.90;;;;;;5012672;28;20211;-61
2024/01/26 05:54:43;;;;;;;7.00;5.30;;;8.30;99.90;;;;;;5012867;28;20564;-60
2024/01/26 05:57:11;;;;;;;6.63;6.03;;;8.40;99.90;;;;;;5012705;28;20538;-61
2024/01/26 05:59:38;;;;;;;5.30;4.80;;;8.40;99.90;;;;;;5004563;28;21026;-60
2024/01/26 06:02:05;;;;;;;6.53;5.93;;;8.50;99.90;;;;;;5012664;28;20450;-60
2024/01/26 06:04:32;;;;;;;4.73;4.03;;;8.60;99.90;;;;;;5012766;28;20477;-60
2024/01/26 06:07:00;;;;;;;5.15;4.50;;;8.70;99.90;;;;;;5012705;28;20471;-60
2024/01/26 06:09:27;;;;;;;5.23;4.77;;;8.70;99.90;;;;;;5012575;28;20211;-60
2024/01/26 06:11:54;;;;;;;4.20;3.90;;;8.80;99.90;;;;;;5012381;28;20893;-61
2024/01/26 06:14:21;;;;;;;4.10;3.70;;;8.80;99.90;;;;;;5012228;28;20492;-61
2024/01/26 06:16:48;;;;;;;3.78;3.45;;;8.80;99.90;;;;;;5012416;28;20461;-61
2024/01/26 06:19:15;;;;;;;4.53;3.70;;;8.90;99.90;;;;;;5012520;28;20215;-62
2024/01/26 06:21:42;;;;;;;3.00;2.80;;;9.00;99.90;;;;;;5012272;28;20539;-61
2024/01/26 06:24:10;;;;;;;3.53;3.23;;;9.00;99.90;;;;;;5012280;28;20470;-61
2024/01/26 06:26:38;;;;;;;2.97;2.77;;;9.00;99.90;;;;;;5012282;28;20453;-59
2024/01/26 06:29:05;;;;;;;3.57;3.27;;;9.10;99.90;;;;;;5012172;28;20888;-59
2024/01/26 06:31:32;;;;;;;4.83;3.13;;;9.10;99.90;;;;;;5012267;28;20893;-61
2024/01/26 06:33:58;;;;;;;3.43;3.13;;;9.10;99.90;;;;;;5012286;28;20919;-61
2024/01/26 06:36:25;;;;;;;4.20;3.60;;;9.20;99.90;;;;;;5012223;28;20451;-61
2024/01/26 06:38:52;;;;;;;3.57;3.27;;;9.20;99.90;;;;;;5012096;28;20453;-61
2024/01/26 06:41:20;;;;;;;3.57;3.30;;;9.20;99.90;;;;;;5011886;28;20478;-61
2024/01/26 06:43:51;;;;;;;3.17;2.97;;;9.30;99.90;;;;;;5011367;28;20471;-59
2024/01/26 06:46:21;;;;;;;3.20;2.87;;;9.30;99.90;;;;;;5012015;28;21141;-61
2024/01/26 06:48:48;;;;;;;3.30;3.00;;;9.30;99.90;;;;;;5012084;28;20454;-59
2024/01/26 06:51:15;;;;;;;2.73;2.63;;;9.30;99.90;;;;;;5012014;28;20517;-60
2024/01/26 06:53:42;;;;;;;2.80;2.60;;;9.30;99.90;;;;;;5011842;28;20485;-61
2024/01/26 06:56:08;;;;;;;2.90;2.60;;;9.30;99.90;;;;;;5012032;28;20486;-61
2024/01/26 06:58:37;;;;;;;3.87;3.60;;;9.40;99.90;;;;;;5012111;28;20545;-61
2024/01/26 07:01:04;;;;;;;2.50;2.30;;;9.40;99.90;;;;;;5011915;28;20533;-61
2024/01/26 07:03:30;;;;;;;2.83;2.63;;;9.40;99.90;;;;;;5011749;28;20473;-61
2024/01/26 07:05:57;;;;;;;2.30;2.20;;;9.50;99.90;;;;;;5011920;28;20567;-62
2024/01/26 07:08:24;;;;;;;2.90;2.60;;;9.50;99.90;;;;;;5011686;28;20482;-60
2024/01/26 07:10:51;;;;;;;2.43;2.20;;;9.50;99.90;;;;;;5011811;28;20884;-62
2024/01/26 07:13:18;;;;;;;2.20;2.00;;;9.50;99.90;;;;;;5011665;28;20558;-61
2024/01/26 07:15:46;;;;;;;2.50;2.40;;;9.50;99.90;;;;;;5011789;28;20518;-61
2024/01/26 07:18:13;;;;;;;4.27;3.87;;;9.50;99.90;;;;;;5011724;28;20457;-61
2024/01/26 07:20:40;;;;;;;2.40;2.30;;;9.50;99.90;;;;;;5011478;28;20447;-60
2024/01/26 07:23:07;;;;;;;1.63;1.63;;;9.50;99.90;;;;;;5011458;28;20920;-61
2024/01/26 07:25:34;;;;;;;1.83;1.70;;;9.60;99.90;;;;;;5011867;28;20530;-60
2024/01/26 07:28:00;;;;;;;2.87;1.90;;;9.60;99.90;;;;;;5011815;28;20298;-60
2024/01/26 07:30:27;;;;;;;2.10;1.90;;;9.60;99.90;;;;;;5011462;28;20538;-61
2024/01/26 07:32:55;;;;;;;1.43;1.33;;;9.60;99.90;;;;;;5011651;28;20473;-61
2024/01/26 07:35:23;;;;;;;1.87;1.77;;;9.60;99.90;;;;;;5011358;28;20569;-61
2024/01/26 07:37:49;;;;;;;2.20;1.37;;;9.60;99.90;;;;;;5011604;28;20461;-58
2024/01/26 07:40:16;;;;;;;2.23;2.03;;;9.60;99.90;;;;;;5011290;28;20546;-60
2024/01/26 07:42:43;;;;;;;53.63;13.20;;;9.60;99.90;;;;;;5011413;28;20479;-61
2024/01/26 07:45:10;;;;;;;2.23;1.90;;;9.60;99.90;;;;;;5011101;28;21000;-60
2024/01/26 07:47:37;;;;;;;2.23;1.50;;;9.70;99.90;;;;;;5011590;28;20509;-61
2024/01/26 07:50:06;;;;;;;1.60;1.50;;;9.60;99.90;;;;;;5011175;28;20529;-60
2024/01/26 07:52:33;;;;;;;1.60;1.50;;;9.70;99.90;;;;;;5011516;28;20506;-60
2024/01/26 07:55:00;;;;;;;2.17;2.07;;;9.70;99.90;;;;;;5012014;28;20522;-61
2024/01/26 07:57:27;;;;;;;1.40;1.30;;;9.60;99.90;;;;;;5033882;28;20524;-61
2024/01/26 07:59:54;;;;;;;1.70;1.60;;;9.70;99.90;;;;;;5034713;28;20536;-61
2024/01/26 08:02:21;;;;;;;8.57;2.40;;;9.70;99.90;;;;;;5034542;28;20824;-61
2024/01/26 08:04:48;;;;;;;36.10;10.73;;;9.70;99.90;;;;;;5034055;28;20446;-60
2024/01/26 08:07:16;;;;;;;1.57;1.47;;;9.70;99.90;;;;;;5034697;28;20515;-61
2024/01/26 08:09:44;;;;;;;2.03;1.90;;;9.80;99.90;;;;;;5034602;28;20453;-61
2024/01/26 08:12:10;;;;;;;1.33;1.23;;;9.80;99.90;;;;;;5034205;28;20460;-61
2024/01/26 08:14:37;;;;;;;2.00;1.90;;;9.80;99.90;;;;;;5034500;28;20891;-60
2024/01/26 08:17:04;;;;;;;1.70;1.60;;;9.90;99.90;;;;;;5033004;28;20536;-62
2024/01/26 08:19:32;;;;;;;2.93;2.73;;;9.80;99.90;;;;;;5011806;28;20976;-61
2024/01/26 08:21:59;;;;;;;2.93;2.23;;;9.90;99.90;;;;;;5012834;28;20474;-60
2024/01/26 08:24:27;;;;;;;2.50;2.30;;;9.90;99.90;;;;;;4994870;28;20610;-62
2024/01/26 08:26:54;;;;;;;6.77;3.80;;;9.90;99.90;;;;;;4994938;28;20479;-60
2024/01/26 08:29:24;;;;;;;1.83;1.73;;;9.90;99.90;;;;;;5008990;28;20554;-61
2024/01/26 08:31:51;;;;;;;2.23;1.90;;;9.90;99.90;;;;;;5013272;28;20447;-60
2024/01/26 08:34:18;;;;;;;2.10;2.00;;;10.00;99.90;;;;;;5014208;28;20566;-61
2024/01/26 08:36:45;;;;;;;1.90;1.80;;;10.00;99.90;;;;;;5014173;28;20577;-60
2024/01/26 08:39:12;;;;;;;2.73;2.63;;;10.00;99.90;;;;;;5007727;28;20457;-61
2024/01/26 08:41:43;;;;;;;1.93;1.80;;;10.00;99.90;;;;;;5013710;28;20509;-60
2024/01/26 08:44:10;;;;;;;1.90;1.80;;;10.00;99.90;;;;;;5013582;28;20471;-60
2024/01/26 08:46:37;;;;;;;2.40;2.20;;;10.00;99.90;;;;;;5013773;28;20538;-60
2024/01/26 08:49:04;;;;;;;47.43;29.20;;;10.00;99.90;;;;;;5014185;28;20500;-60
2024/01/26 08:51:30;;;;;;;5.37;4.67;;;10.00;99.90;;;;;;5013801;28;20899;-61
2024/01/26 08:53:57;;;;;;;2.10;2.00;;;10.10;99.90;;;;;;5013685;28;20561;-60
2024/01/26 08:56:24;;;;;;;2.10;2.00;;;10.10;99.90;;;;;;5013302;28;21004;-60
2024/01/26 08:58:54;;;;;;;2.17;2.00;;;10.20;99.90;;;;;;5003680;28;20442;-61
2024/01/26 09:01:20;;;;;;;2.63;2.43;;;10.20;99.90;;;;;;5009728;28;20450;-61
2024/01/26 09:03:47;;;;;;;2.73;2.63;;;10.30;99.90;;;;;;5012192;28;20891;-61
2024/01/26 09:06:13;;;;;;;2.43;2.33;;;10.30;99.90;;;;;;5013247;28;20446;-62
2024/01/26 09:08:40;;;;;;;2.80;2.67;;;10.30;99.90;;;;;;5010564;28;20443;-59
2024/01/26 09:11:07;;;;;;;2.70;2.53;;;10.30;99.90;;;;;;5013118;28;21152;-60
2024/01/26 09:13:34;;;;;;;2.60;2.17;;;10.30;99.90;;;;;;5012854;28;20466;-59
2024/01/26 09:16:03;;;;;;;5.40;2.63;;;10.30;99.90;;;;;;5013319;28;21028;-60
2024/01/26 09:18:30;;;;;;;3.10;2.80;;;10.40;99.90;;;;;;5013153;28;20483;-60
2024/01/26 09:20:57;;;;;;;1.87;1.77;;;10.50;99.90;;;;;;5012321;28;20889;-62
2024/01/26 09:23:23;;;;;;;2.30;2.07;;;10.50;99.90;;;;;;5010625;28;20547;-59
2024/01/26 09:25:50;;;;;;;2.03;1.60;;;10.60;99.90;;;;;;5012794;28;20534;-61
2024/01/26 09:28:17;;;;;;;2.37;2.17;;;10.70;99.90;;;;;;5012954;28;20534;-60
2024/01/26 09:30:44;;;;;;;2.00;1.90;;;10.80;99.90;;;;;;5012616;28;20533;-62
2024/01/26 09:33:12;;;;;;;3.20;1.77;;;10.80;99.90;;;;;;5013030;28;20557;-62
2024/01/26 09:35:39;;;;;;;2.13;2.00;;;10.90;99.90;;;;;;5012920;28;21038;-58
2024/01/26 09:38:06;;;;;;;1.27;1.27;;;10.90;99.90;;;;;;5012717;28;20453;-62
2024/01/26 09:40:33;;;;;;;2.50;2.30;;;10.90;99.90;;;;;;5012302;28;20446;-62
2024/01/26 09:43:00;;;;;;;1.80;1.70;;;11.00;99.90;;;;;;5012616;28;20503;-61
2024/01/26 09:45:27;;;;;;;2.90;2.40;;;11.00;99.90;;;;;;5012681;28;20443;-60
2024/01/26 09:47:54;;;;;;;2.80;2.60;;;11.00;99.90;;;;;;5012957;28;21016;-60
2024/01/26 09:50:22;;;;;;;2.10;2.00;;;11.00;99.90;;;;;;5012576;28;20861;-60
2024/01/26 09:52:51;;;;;;;2.47;2.37;;;10.90;99.90;;;;;;5006908;28;21064;-61
2024/01/26 09:55:19;;;;;;;3.20;3.00;;;10.90;99.90;;;;;;5001190;28;20459;-61
2024/01/26 09:57:48;;;;;;;3.07;2.87;;;10.90;99.90;;;;;;5012796;28;20567;-61
2024/01/26 10:00:15;;;;;;;4.07;2.40;;;10.90;99.90;;;;;;5012550;28;20490;-61
2024/01/26 10:02:43;;;;;;;2.50;1.83;;;10.80;99.90;;;;;;5012396;28;20558;-61
2024/01/26 10:05:10;;;;;;;1.63;1.53;;;10.80;99.90;;;;;;5012253;28;20541;-61
2024/01/26 10:07:38;;;;;;;2.47;2.27;;;10.80;99.90;;;;;;5012366;28;20451;-61
2024/01/26 10:10:06;;;;;;;5.27;4.77;;;10.80;99.90;;;;;;5012279;28;20474;-62
2024/01/26 10:12:33;;;;;;;1.80;1.70;;;10.80;99.90;;;;;;5012458;28;20547;-60
2024/01/26 10:15:04;;;;;;;3.40;2.57;;;10.80;99.90;;;;;;5012068;28;20529;-61
2024/01/26 10:17:31;;;;;;;210.07;54.47;;;10.80;99.90;;;;;;5012230;28;20861;-61
2024/01/26 10:20:09;;;;;;;2.10;2.00;;;10.80;99.90;;;;;;5011865;28;20453;-59
2024/01/26 10:22:38;;;;;;;1.97;1.77;;;10.80;99.90;;;;;;5012618;28;20466;-60
2024/01/26 10:25:05;;;;;;;2.20;1.97;;;10.90;99.90;;;;;;5012169;28;20461;-60
2024/01/26 10:27:33;;;;;;;2.30;1.50;;;10.90;99.90;;;;;;5009027;28;20534;-60
2024/01/26 10:30:00;;;;;;;5.23;4.73;;;10.90;99.90;;;;;;5002234;28;20825;-61
2024/01/26 10:32:29;;;;;;;2.00;1.90;;;10.90;99.90;;;;;;5010303;28;20458;-61
2024/01/26 10:34:58;;;;;;;2.27;1.80;;;11.00;99.90;;;;;;5011042;28;20875;-61
2024/01/26 10:37:28;;;;;;;2.00;1.90;;;10.90;99.90;;;;;;5008562;28;20498;-58
2024/01/26 10:39:57;;;;;;;2.97;2.60;;;10.90;99.90;;;;;;5011870;28;20446;-60
2024/01/26 10:42:24;;;;;;;1.67;1.57;;;10.90;99.90;;;;;;5010962;28;20442;-61
2024/01/26 10:44:54;;;;;;;2.50;2.17;;;10.90;99.90;;;;;;5009620;28;20530;-60
2024/01/26 10:47:21;;;;;;;1.43;1.37;;;10.80;99.90;;;;;;5011361;28;20457;-61
2024/01/26 10:49:49;;;;;;;3.03;1.73;;;10.80;99.90;;;;;;5011871;28;20534;-60
2024/01/26 10:52:17;;;;;;;1.60;1.50;;;10.80;99.90;;;;;;5010998;28;20541;-60
2024/01/26 10:54:47;;;;;;;2.43;2.23;;;10.80;99.90;;;;;;5033594;23;20538;-62
2024/01/26 10:57:16;;;;;;;3.40;2.57;;;10.70;99.90;;;;;;5008105;28;20483;-62
2024/01/26 10:59:44;;;;;;;3.83;2.57;;;10.70;99.90;;;;;;5004337;28;20911;-62
2024/01/26 11:02:14;;;;;;;2.63;2.43;;;10.60;99.90;;;;;;4998348;28;20439;-62
2024/01/26 11:04:42;;;;;;;7.20;3.10;;;10.60;99.90;;;;;;5028152;28;20552;-62
2024/01/26 11:07:09;;;;;;;2.17;1.97;;;10.60;99.90;;;;;;5023544;28;20462;-59
2024/01/26 11:09:38;;;;;;;3.00;2.20;;;10.50;99.90;;;;;;5017285;28;20805;-62
2024/01/26 11:12:08;;;;;;;2.00;1.90;;;10.50;99.90;;;;;;5030825;28;20545;-62
2024/01/26 11:14:36;;;;;;;2.80;2.60;;;10.40;99.90;;;;;;5030562;28;21008;-62
2024/01/26 11:17:10;;;;;;;2.20;2.00;;;10.40;99.90;;;;;;5030635;28;21000;-61
2024/01/26 11:19:37;;;;;;;4.90;2.30;;;10.30;99.90;;;;;;5020584;28;20453;-61
2024/01/26 11:22:05;;;;;;;2.60;2.40;;;10.30;99.90;;;;;;5015029;28;20907;-62
2024/01/26 11:24:33;;;;;;;2.70;2.07;;;10.20;99.90;;;;;;5025522;28;20541;-59
2024/01/26 11:27:01;;;;;;;2.33;2.13;;;10.20;99.90;;;;;;5021096;28;20451;-62
2024/01/26 11:29:33;;;;;;;4.90;3.30;;;10.20;99.90;;;;;;5016968;28;20553;-61
2024/01/26 11:32:01;;;;;;;2.57;2.40;;;10.20;99.90;;;;;;5028145;28;20961;-61
2024/01/26 11:34:28;;;;;;;2.30;2.20;;;10.10;99.90;;;;;;5026191;28;20482;-61
2024/01/26 11:37:11;;;;;;;3.03;2.80;;;10.10;99.90;;;;;;5029204;28;20586;-62
2024/01/26 11:39:39;;;;;;;4.50;4.20;;;10.10;99.90;;;;;;5031019;28;20450;-62
2024/01/26 11:42:09;;;;;;;3.50;3.30;;;10.10;99.90;;;;;;5022438;28;20457;-62
2024/01/26 11:44:41;;;;;;;3.50;3.03;;;10.10;99.90;;;;;;5033922;28;20473;-62
2024/01/26 11:47:10;;;;;;;4.67;4.27;;;10.10;99.90;;;;;;5041460;28;20884;-62
2024/01/26 11:49:37;;;;;;;4.23;3.83;;;10.10;99.90;;;;;;5041720;28;20523;-62
2024/01/26 11:52:04;;;;;;;3.97;3.67;;;10.10;99.90;;;;;;5039621;28;20460;-62
2024/01/26 11:54:32;;;;;;;4.30;3.90;;;10.10;99.90;;;;;;5036042;28;20559;-63
2024/01/26 11:56:59;;;;;;;4.50;4.20;;;10.10;99.90;;;;;;5025165;28;20581;-62
2024/01/26 11:59:28;;;;;;;3.60;3.37;;;10.10;99.90;;;;;;5038627;28;20964;-62
2024/01/26 12:01:55;;;;;;;5.80;5.40;;;10.20;99.90;;;;;;5035733;28;20473;-62
2024/01/26 12:04:24;;;;;;;6.43;5.93;;;10.20;99.90;;;;;;5036421;28;20883;-62
2024/01/26 12:06:52;;;;;;;4.53;4.17;;;10.20;99.90;;;;;;5035900;28;20916;-62
2024/01/26 12:09:19;;;;;;;4.47;4.13;;;10.20;99.90;;;;;;5035586;28;20819;-62
2024/01/26 12:11:46;;;;;;;3.10;2.90;;;10.20;99.90;;;;;;5041479;28;20483;-61
2024/01/26 12:14:13;;;;;;;4.72;4.30;;;10.20;99.90;;;;;;5032499;28;20552;-62
2024/01/26 12:16:40;;;;;;;5.60;5.20;;;10.20;99.90;;;;;;5037986;28;20235;-62
2024/01/26 12:19:08;;;;;;;4.83;4.43;;;10.20;99.90;;;;;;5044419;28;20825;-62
2024/01/26 12:21:36;;;;;;;3.50;3.20;;;10.20;99.90;;;;;;5045203;28;20900;-62
2024/01/26 12:24:09;;;;;;;4.07;3.73;;;10.20;99.90;;;;;;5042218;28;20469;-62
2024/01/26 12:26:36;;;;;;;4.60;4.30;;;10.20;99.90;;;;;;5031110;28;20841;-62
2024/01/26 12:29:03;;;;;;;4.33;3.60;;;10.20;99.90;;;;;;5024368;28;20596;-62
2024/01/26 12:31:32;;;;;;;4.97;4.57;;;10.20;99.90;;;;;;5040044;28;20541;-62
2024/01/26 12:33:59;;;;;;;7.73;4.27;;;10.30;99.90;;;;;;5039806;28;20500;-62
2024/01/26 12:36:31;;;;;;;3.47;3.17;;;10.30;99.90;;;;;;5022837;28;20865;-62
2024/01/26 12:38:59;;;;;;;3.93;3.63;;;10.30;99.90;;;;;;5034829;28;20579;-62
2024/01/26 12:41:27;;;;;;;3.67;3.40;;;10.40;99.90;;;;;;5029653;28;20450;-62
2024/01/26 12:43:55;;;;;;;3.80;3.03;;;10.40;99.90;;;;;;5033574;28;20476;-62
2024/01/26 12:46:22;;;;;;;3.30;3.10;;;10.40;99.90;;;;;;5031288;28;20452;-62
2024/01/26 12:48:49;;;;;;;2.90;2.60;;;10.40;99.90;;;;;;5034680;28;20536;-62
2024/01/26 12:51:16;;;;;;;2.23;2.13;;;10.40;99.90;;;;;;5028404;28;20561;-63
2024/01/26 12:53:43;;;;;;;3.37;3.07;;;10.40;99.90;;;;;;5027606;28;20959;-63